sensor_id;sensor_type;location;lat;lon;timestamp;P1;durP1;ratioP1;P2;durP2;ratioP2
10586;SDS011;5341;47.606;7.576;2023-05-06T00:00:33;3.20;;;2.40;;
10586;SDS011;5341;47.606;7.576;2023-05-06T00:03:02;5.70;;;2.50;;
10586;SDS011;5341;47.606;7.576;2023-05-06T00:05:31;3.00;;;2.40;;
10586;SDS011;5341;47.606;7.576;2023-05-06T00:07:58;4.57;;;2.67;;
10586;SDS011;5341;47.606;7.576;2023-05-06T00:10:25;3.78;;;2.50;;
10586;SDS011;5341;47.606;7.576;2023-05-06T00:12:53;5.10;;;2.35;;
10586;SDS011;5341;47.606;7.576;2023-05-06T00:15:20;4.07;;;2.47;;
10586;SDS011;5341;47.606;7.576;2023-05-06T00:17:48;3.90;;;2.47;;
10586;SDS011;5341;47.606;7.576;2023-05-06T00:20:15;4.03;;;2.70;;
10586;SDS011;5341;47.606;7.576;2023-05-06T00:22:44;4.68;;;2.50;;
10586;SDS011;5341;47.606;7.576;2023-05-06T00:25:11;8.55;;;2.60;;
10586;SDS011;5341;47.606;7.576;2023-05-06T00:27:39;5.30;;;2.40;;
10586;SDS011;5341;47.606;7.576;2023-05-06T00:30:07;5.47;;;2.45;;
10586;SDS011;5341;47.606;7.576;2023-05-06T00:32:35;6.75;;;2.67;;
10586;SDS011;5341;47.606;7.576;2023-05-06T00:35:03;8.38;;;2.65;;
10586;SDS011;5341;47.606;7.576;2023-05-06T00:37:31;3.03;;;2.65;;
10586;SDS011;5341;47.606;7.576;2023-05-06T00:40:00;5.90;;;2.70;;
10586;SDS011;5341;47.606;7.576;2023-05-06T00:42:28;4.65;;;2.40;;
10586;SDS011;5341;47.606;7.576;2023-05-06T00:44:55;5.75;;;2.75;;
10586;SDS011;5341;47.606;7.576;2023-05-06T00:47:23;4.18;;;2.60;;
10586;SDS011;5341;47.606;7.576;2023-05-06T00:49:51;3.08;;;2.38;;
10586;SDS011;5341;47.606;7.576;2023-05-06T00:52:18;3.38;;;2.70;;
10586;SDS011;5341;47.606;7.576;2023-05-06T00:54:46;3.53;;;2.58;;
10586;SDS011;5341;47.606;7.576;2023-05-06T00:57:15;5.50;;;2.60;;
10586;SDS011;5341;47.606;7.576;2023-05-06T00:59:42;4.55;;;2.60;;
10586;SDS011;5341;47.606;7.576;2023-05-06T01:02:13;4.68;;;2.70;;
10586;SDS011;5341;47.606;7.576;2023-05-06T01:04:41;4.38;;;2.65;;
10586;SDS011;5341;47.606;7.576;2023-05-06T01:07:11;3.17;;;2.78;;
10586;SDS011;5341;47.606;7.576;2023-05-06T01:09:50;3.00;;;2.55;;
10586;SDS011;5341;47.606;7.576;2023-05-06T01:12:25;3.63;;;2.75;;
10586;SDS011;5341;47.606;7.576;2023-05-06T01:14:58;4.75;;;2.72;;
10586;SDS011;5341;47.606;7.576;2023-05-06T01:17:32;4.47;;;2.85;;
10586;SDS011;5341;47.606;7.576;2023-05-06T01:20:02;4.22;;;2.95;;
10586;SDS011;5341;47.606;7.576;2023-05-06T01:22:37;5.40;;;2.55;;
10586;SDS011;5341;47.606;7.576;2023-05-06T01:25:16;5.80;;;2.70;;
10586;SDS011;5341;47.606;7.576;2023-05-06T01:27:44;5.03;;;2.60;;
10586;SDS011;5341;47.606;7.576;2023-05-06T01:30:12;2.95;;;2.30;;
10586;SDS011;5341;47.606;7.576;2023-05-06T01:32:44;4.30;;;2.40;;
10586;SDS011;5341;47.606;7.576;2023-05-06T01:35:20;4.90;;;2.40;;
10586;SDS011;5341;47.606;7.576;2023-05-06T01:37:55;2.58;;;2.10;;
10586;SDS011;5341;47.606;7.576;2023-05-06T01:40:33;5.30;;;2.72;;
10586;SDS011;5341;47.606;7.576;2023-05-06T01:43:02;5.22;;;2.55;;
10586;SDS011;5341;47.606;7.576;2023-05-06T01:45:32;3.50;;;2.50;;
10586;SDS011;5341;47.606;7.576;2023-05-06T01:48:02;2.97;;;2.10;;
10586;SDS011;5341;47.606;7.576;2023-05-06T01:50:31;3.83;;;2.30;;
10586;SDS011;5341;47.606;7.576;2023-05-06T01:52:59;3.05;;;2.40;;
10586;SDS011;5341;47.606;7.576;2023-05-06T01:55:28;3.85;;;2.25;;
10586;SDS011;5341;47.606;7.576;2023-05-06T01:57:58;3.90;;;2.47;;
10586;SDS011;5341;47.606;7.576;2023-05-06T02:00:25;4.05;;;2.53;;
10586;SDS011;5341;47.606;7.576;2023-05-06T02:02:53;2.60;;;2.38;;
10586;SDS011;5341;47.606;7.576;2023-05-06T02:05:21;3.92;;;2.53;;
10586;SDS011;5341;47.606;7.576;2023-05-06T02:07:52;7.55;;;2.53;;
10586;SDS011;5341;47.606;7.576;2023-05-06T02:10:20;4.38;;;2.35;;
10586;SDS011;5341;47.606;7.576;2023-05-06T02:12:55;5.32;;;2.28;;
10586;SDS011;5341;47.606;7.576;2023-05-06T02:15:25;3.67;;;2.42;;
10586;SDS011;5341;47.606;7.576;2023-05-06T02:17:53;4.97;;;2.53;;
10586;SDS011;5341;47.606;7.576;2023-05-06T02:20:21;2.20;;;1.90;;
10586;SDS011;5341;47.606;7.576;2023-05-06T02:22:49;4.70;;;2.50;;
10586;SDS011;5341;47.606;7.576;2023-05-06T02:25:16;5.70;;;2.75;;
10586;SDS011;5341;47.606;7.576;2023-05-06T02:27:44;3.92;;;2.20;;
10586;SDS011;5341;47.606;7.576;2023-05-06T02:30:13;3.25;;;2.15;;
10586;SDS011;5341;47.606;7.576;2023-05-06T02:32:40;2.53;;;2.20;;
10586;SDS011;5341;47.606;7.576;2023-05-06T02:35:08;3.40;;;2.40;;
10586;SDS011;5341;47.606;7.576;2023-05-06T02:37:35;3.42;;;2.35;;
10586;SDS011;5341;47.606;7.576;2023-05-06T02:40:03;5.00;;;2.20;;
10586;SDS011;5341;47.606;7.576;2023-05-06T02:42:32;2.83;;;1.90;;
10586;SDS011;5341;47.606;7.576;2023-05-06T02:45:00;3.42;;;2.60;;
10586;SDS011;5341;47.606;7.576;2023-05-06T02:47:32;2.50;;;2.15;;
10586;SDS011;5341;47.606;7.576;2023-05-06T02:49:59;3.75;;;2.47;;
10586;SDS011;5341;47.606;7.576;2023-05-06T02:52:27;3.38;;;2.58;;
10586;SDS011;5341;47.606;7.576;2023-05-06T02:54:54;4.95;;;2.40;;
10586;SDS011;5341;47.606;7.576;2023-05-06T02:57:21;3.95;;;2.42;;
10586;SDS011;5341;47.606;7.576;2023-05-06T02:59:49;4.25;;;2.58;;
10586;SDS011;5341;47.606;7.576;2023-05-06T03:02:16;4.20;;;2.85;;
10586;SDS011;5341;47.606;7.576;2023-05-06T03:04:46;3.35;;;2.60;;
10586;SDS011;5341;47.606;7.576;2023-05-06T03:07:14;3.35;;;2.53;;
10586;SDS011;5341;47.606;7.576;2023-05-06T03:09:44;3.78;;;2.88;;
10586;SDS011;5341;47.606;7.576;2023-05-06T03:12:11;3.80;;;2.90;;
10586;SDS011;5341;47.606;7.576;2023-05-06T03:14:39;3.45;;;2.60;;
10586;SDS011;5341;47.606;7.576;2023-05-06T03:17:06;4.80;;;2.85;;
10586;SDS011;5341;47.606;7.576;2023-05-06T03:19:35;3.75;;;2.80;;
10586;SDS011;5341;47.606;7.576;2023-05-06T03:22:06;3.72;;;2.60;;
10586;SDS011;5341;47.606;7.576;2023-05-06T03:24:37;5.85;;;2.97;;
10586;SDS011;5341;47.606;7.576;2023-05-06T03:27:05;3.10;;;2.50;;
10586;SDS011;5341;47.606;7.576;2023-05-06T03:29:33;5.03;;;2.80;;
10586;SDS011;5341;47.606;7.576;2023-05-06T03:32:01;6.63;;;2.63;;
10586;SDS011;5341;47.606;7.576;2023-05-06T03:34:32;4.47;;;2.70;;
10586;SDS011;5341;47.606;7.576;2023-05-06T03:36:59;4.28;;;2.65;;
10586;SDS011;5341;47.606;7.576;2023-05-06T03:39:29;4.00;;;2.53;;
10586;SDS011;5341;47.606;7.576;2023-05-06T03:41:58;3.83;;;2.53;;
10586;SDS011;5341;47.606;7.576;2023-05-06T03:44:26;3.78;;;2.50;;
10586;SDS011;5341;47.606;7.576;2023-05-06T03:46:54;2.95;;;2.30;;
10586;SDS011;5341;47.606;7.576;2023-05-06T03:49:21;3.45;;;2.50;;
10586;SDS011;5341;47.606;7.576;2023-05-06T03:51:49;3.40;;;2.60;;
10586;SDS011;5341;47.606;7.576;2023-05-06T03:54:18;3.92;;;2.85;;
10586;SDS011;5341;47.606;7.576;2023-05-06T03:56:47;4.85;;;2.20;;
10586;SDS011;5341;47.606;7.576;2023-05-06T03:59:15;3.55;;;2.30;;
10586;SDS011;5341;47.606;7.576;2023-05-06T04:01:43;5.20;;;2.30;;
10586;SDS011;5341;47.606;7.576;2023-05-06T04:04:12;3.03;;;2.25;;
10586;SDS011;5341;47.606;7.576;2023-05-06T04:06:40;5.95;;;2.70;;
10586;SDS011;5341;47.606;7.576;2023-05-06T04:09:07;2.97;;;2.50;;
10586;SDS011;5341;47.606;7.576;2023-05-06T04:11:37;5.18;;;2.40;;
10586;SDS011;5341;47.606;7.576;2023-05-06T04:14:07;6.93;;;2.28;;
10586;SDS011;5341;47.606;7.576;2023-05-06T04:16:36;2.38;;;2.17;;
10586;SDS011;5341;47.606;7.576;2023-05-06T04:19:04;3.03;;;2.47;;
10586;SDS011;5341;47.606;7.576;2023-05-06T04:21:33;5.63;;;2.50;;
10586;SDS011;5341;47.606;7.576;2023-05-06T04:24:05;5.65;;;2.70;;
10586;SDS011;5341;47.606;7.576;2023-05-06T04:26:36;6.28;;;2.47;;
10586;SDS011;5341;47.606;7.576;2023-05-06T04:29:03;4.13;;;2.55;;
10586;SDS011;5341;47.606;7.576;2023-05-06T04:31:37;5.93;;;2.53;;
10586;SDS011;5341;47.606;7.576;2023-05-06T04:34:08;5.97;;;2.08;;
10586;SDS011;5341;47.606;7.576;2023-05-06T04:36:36;5.03;;;2.42;;
10586;SDS011;5341;47.606;7.576;2023-05-06T04:39:18;4.45;;;2.55;;
10586;SDS011;5341;47.606;7.576;2023-05-06T04:41:47;3.20;;;2.33;;
10586;SDS011;5341;47.606;7.576;2023-05-06T04:44:19;4.68;;;2.60;;
10586;SDS011;5341;47.606;7.576;2023-05-06T04:46:48;3.75;;;2.25;;
10586;SDS011;5341;47.606;7.576;2023-05-06T04:49:16;4.25;;;2.10;;
10586;SDS011;5341;47.606;7.576;2023-05-06T04:51:43;5.70;;;2.60;;
10586;SDS011;5341;47.606;7.576;2023-05-06T04:54:11;4.05;;;2.60;;
10586;SDS011;5341;47.606;7.576;2023-05-06T04:56:39;4.22;;;2.40;;
10586;SDS011;5341;47.606;7.576;2023-05-06T04:59:09;2.78;;;2.10;;
10586;SDS011;5341;47.606;7.576;2023-05-06T05:01:38;2.90;;;2.28;;
10586;SDS011;5341;47.606;7.576;2023-05-06T05:04:08;4.30;;;2.30;;
10586;SDS011;5341;47.606;7.576;2023-05-06T05:06:35;3.85;;;2.60;;
10586;SDS011;5341;47.606;7.576;2023-05-06T05:09:03;2.97;;;2.30;;
10586;SDS011;5341;47.606;7.576;2023-05-06T05:11:31;4.85;;;2.50;;
10586;SDS011;5341;47.606;7.576;2023-05-06T05:14:00;4.55;;;2.15;;
10586;SDS011;5341;47.606;7.576;2023-05-06T05:16:27;6.60;;;2.42;;
10586;SDS011;5341;47.606;7.576;2023-05-06T05:18:54;3.38;;;2.45;;
10586;SDS011;5341;47.606;7.576;2023-05-06T05:21:27;3.70;;;2.47;;
10586;SDS011;5341;47.606;7.576;2023-05-06T05:23:55;4.38;;;2.40;;
10586;SDS011;5341;47.606;7.576;2023-05-06T05:26:23;3.35;;;2.60;;
10586;SDS011;5341;47.606;7.576;2023-05-06T05:28:52;3.20;;;2.15;;
10586;SDS011;5341;47.606;7.576;2023-05-06T05:31:19;3.70;;;2.30;;
10586;SDS011;5341;47.606;7.576;2023-05-06T05:33:48;2.58;;;2.38;;
10586;SDS011;5341;47.606;7.576;2023-05-06T05:36:18;6.88;;;2.40;;
10586;SDS011;5341;47.606;7.576;2023-05-06T05:38:50;3.05;;;2.55;;
10586;SDS011;5341;47.606;7.576;2023-05-06T05:41:18;2.47;;;2.28;;
10586;SDS011;5341;47.606;7.576;2023-05-06T05:43:46;4.40;;;2.50;;
10586;SDS011;5341;47.606;7.576;2023-05-06T05:46:14;4.80;;;2.33;;
10586;SDS011;5341;47.606;7.576;2023-05-06T05:48:44;5.53;;;2.50;;
10586;SDS011;5341;47.606;7.576;2023-05-06T05:51:15;4.88;;;2.80;;
10586;SDS011;5341;47.606;7.576;2023-05-06T05:53:44;5.53;;;2.85;;
10586;SDS011;5341;47.606;7.576;2023-05-06T05:56:15;4.43;;;2.30;;
10586;SDS011;5341;47.606;7.576;2023-05-06T05:58:43;6.25;;;2.67;;
10586;SDS011;5341;47.606;7.576;2023-05-06T06:01:11;3.78;;;2.70;;
10586;SDS011;5341;47.606;7.576;2023-05-06T06:03:39;5.45;;;2.72;;
10586;SDS011;5341;47.606;7.576;2023-05-06T06:06:07;3.85;;;2.75;;
10586;SDS011;5341;47.606;7.576;2023-05-06T06:08:35;3.85;;;3.00;;
10586;SDS011;5341;47.606;7.576;2023-05-06T06:11:03;4.25;;;3.00;;
10586;SDS011;5341;47.606;7.576;2023-05-06T06:13:37;4.78;;;2.78;;
10586;SDS011;5341;47.606;7.576;2023-05-06T06:16:06;3.53;;;3.13;;
10586;SDS011;5341;47.606;7.576;2023-05-06T06:18:36;4.80;;;3.00;;
10586;SDS011;5341;47.606;7.576;2023-05-06T06:21:04;5.82;;;3.97;;
10586;SDS011;5341;47.606;7.576;2023-05-06T06:23:33;7.22;;;3.10;;
10586;SDS011;5341;47.606;7.576;2023-05-06T06:26:01;3.97;;;2.92;;
10586;SDS011;5341;47.606;7.576;2023-05-06T06:28:31;4.90;;;3.25;;
10586;SDS011;5341;47.606;7.576;2023-05-06T06:31:00;4.47;;;3.17;;
10586;SDS011;5341;47.606;7.576;2023-05-06T06:33:27;6.72;;;3.50;;
10586;SDS011;5341;47.606;7.576;2023-05-06T06:35:55;5.05;;;3.72;;
10586;SDS011;5341;47.606;7.576;2023-05-06T06:38:23;4.82;;;3.65;;
10586;SDS011;5341;47.606;7.576;2023-05-06T06:40:50;4.43;;;3.70;;
10586;SDS011;5341;47.606;7.576;2023-05-06T06:43:18;5.72;;;3.92;;
10586;SDS011;5341;47.606;7.576;2023-05-06T06:46:10;4.22;;;3.30;;
10586;SDS011;5341;47.606;7.576;2023-05-06T06:48:37;3.90;;;3.47;;
10586;SDS011;5341;47.606;7.576;2023-05-06T06:51:04;3.78;;;3.30;;
10586;SDS011;5341;47.606;7.576;2023-05-06T06:53:32;4.53;;;3.42;;
10586;SDS011;5341;47.606;7.576;2023-05-06T06:55:59;4.10;;;3.70;;
10586;SDS011;5341;47.606;7.576;2023-05-06T06:58:27;5.10;;;3.40;;
10586;SDS011;5341;47.606;7.576;2023-05-06T07:00:54;7.38;;;3.65;;
10586;SDS011;5341;47.606;7.576;2023-05-06T07:03:23;5.65;;;3.58;;
10586;SDS011;5341;47.606;7.576;2023-05-06T07:05:50;4.57;;;3.47;;
10586;SDS011;5341;47.606;7.576;2023-05-06T07:08:17;6.45;;;4.70;;
10586;SDS011;5341;47.606;7.576;2023-05-06T07:10:45;3.97;;;3.40;;
10586;SDS011;5341;47.606;7.576;2023-05-06T07:13:14;3.95;;;3.22;;
10586;SDS011;5341;47.606;7.576;2023-05-06T07:15:41;3.78;;;3.47;;
10586;SDS011;5341;47.606;7.576;2023-05-06T07:18:09;4.22;;;3.47;;
10586;SDS011;5341;47.606;7.576;2023-05-06T07:20:37;5.13;;;3.72;;
10586;SDS011;5341;47.606;7.576;2023-05-06T07:23:05;4.70;;;3.60;;
10586;SDS011;5341;47.606;7.576;2023-05-06T07:25:33;5.07;;;3.58;;
10586;SDS011;5341;47.606;7.576;2023-05-06T07:28:00;4.15;;;3.22;;
10586;SDS011;5341;47.606;7.576;2023-05-06T07:30:27;4.45;;;3.15;;
10586;SDS011;5341;47.606;7.576;2023-05-06T07:32:55;5.30;;;3.70;;
10586;SDS011;5341;47.606;7.576;2023-05-06T07:35:22;4.75;;;3.20;;
10586;SDS011;5341;47.606;7.576;2023-05-06T07:37:52;5.28;;;3.40;;
10586;SDS011;5341;47.606;7.576;2023-05-06T07:40:20;4.05;;;3.30;;
10586;SDS011;5341;47.606;7.576;2023-05-06T07:42:48;4.13;;;3.20;;
10586;SDS011;5341;47.606;7.576;2023-05-06T07:45:15;3.92;;;3.10;;
10586;SDS011;5341;47.606;7.576;2023-05-06T07:47:44;4.25;;;3.15;;
10586;SDS011;5341;47.606;7.576;2023-05-06T07:50:11;3.50;;;3.05;;
10586;SDS011;5341;47.606;7.576;2023-05-06T07:52:38;4.75;;;3.50;;
10586;SDS011;5341;47.606;7.576;2023-05-06T07:55:08;4.60;;;3.25;;
10586;SDS011;5341;47.606;7.576;2023-05-06T07:57:36;5.75;;;3.83;;
10586;SDS011;5341;47.606;7.576;2023-05-06T08:00:04;5.00;;;3.60;;
10586;SDS011;5341;47.606;7.576;2023-05-06T08:02:42;3.88;;;3.47;;
10586;SDS011;5341;47.606;7.576;2023-05-06T08:05:11;4.93;;;3.78;;
10586;SDS011;5341;47.606;7.576;2023-05-06T08:07:38;4.93;;;3.80;;
10586;SDS011;5341;47.606;7.576;2023-05-06T08:10:09;5.63;;;3.47;;
10586;SDS011;5341;47.606;7.576;2023-05-06T08:12:37;5.13;;;3.22;;
10586;SDS011;5341;47.606;7.576;2023-05-06T08:15:04;4.53;;;3.33;;
10586;SDS011;5341;47.606;7.576;2023-05-06T08:17:32;5.38;;;3.50;;
10586;SDS011;5341;47.606;7.576;2023-05-06T08:20:00;4.85;;;3.40;;
10586;SDS011;5341;47.606;7.576;2023-05-06T08:22:27;5.13;;;3.30;;
10586;SDS011;5341;47.606;7.576;2023-05-06T08:24:55;5.18;;;3.33;;
10586;SDS011;5341;47.606;7.576;2023-05-06T08:27:24;5.32;;;3.08;;
10586;SDS011;5341;47.606;7.576;2023-05-06T08:29:51;3.55;;;2.50;;
10586;SDS011;5341;47.606;7.576;2023-05-06T08:32:19;4.72;;;3.13;;
10586;SDS011;5341;47.606;7.576;2023-05-06T08:34:46;3.97;;;2.78;;
10586;SDS011;5341;47.606;7.576;2023-05-06T08:37:13;4.15;;;3.47;;
10586;SDS011;5341;47.606;7.576;2023-05-06T08:39:41;4.25;;;3.00;;
10586;SDS011;5341;47.606;7.576;2023-05-06T08:42:09;6.32;;;3.55;;
10586;SDS011;5341;47.606;7.576;2023-05-06T08:44:38;3.85;;;3.03;;
10586;SDS011;5341;47.606;7.576;2023-05-06T08:47:06;7.10;;;3.40;;
10586;SDS011;5341;47.606;7.576;2023-05-06T08:49:34;3.88;;;3.42;;
10586;SDS011;5341;47.606;7.576;2023-05-06T08:52:02;4.57;;;3.10;;
10586;SDS011;5341;47.606;7.576;2023-05-06T08:54:32;4.57;;;2.95;;
10586;SDS011;5341;47.606;7.576;2023-05-06T08:57:02;6.85;;;3.20;;
10586;SDS011;5341;47.606;7.576;2023-05-06T08:59:31;4.75;;;3.20;;
10586;SDS011;5341;47.606;7.576;2023-05-06T09:02:00;5.60;;;3.38;;
10586;SDS011;5341;47.606;7.576;2023-05-06T09:04:28;3.70;;;2.63;;
10586;SDS011;5341;47.606;7.576;2023-05-06T09:06:56;6.03;;;2.88;;
10586;SDS011;5341;47.606;7.576;2023-05-06T09:09:25;6.95;;;3.28;;
10586;SDS011;5341;47.606;7.576;2023-05-06T09:11:52;4.47;;;3.30;;
10586;SDS011;5341;47.606;7.576;2023-05-06T09:14:21;5.60;;;3.50;;
10586;SDS011;5341;47.606;7.576;2023-05-06T09:16:49;3.47;;;3.17;;
10586;SDS011;5341;47.606;7.576;2023-05-06T09:19:20;3.80;;;3.00;;
10586;SDS011;5341;47.606;7.576;2023-05-06T09:21:48;5.35;;;3.47;;
10586;SDS011;5341;47.606;7.576;2023-05-06T09:24:16;5.35;;;3.65;;
10586;SDS011;5341;47.606;7.576;2023-05-06T09:26:44;7.03;;;3.70;;
10586;SDS011;5341;47.606;7.576;2023-05-06T09:29:12;6.13;;;3.60;;
10586;SDS011;5341;47.606;7.576;2023-05-06T09:31:40;4.13;;;3.47;;
10586;SDS011;5341;47.606;7.576;2023-05-06T09:34:10;4.22;;;3.60;;
10586;SDS011;5341;47.606;7.576;2023-05-06T09:36:40;6.90;;;3.45;;
10586;SDS011;5341;47.606;7.576;2023-05-06T09:39:07;3.50;;;2.75;;
10586;SDS011;5341;47.606;7.576;2023-05-06T09:41:38;4.70;;;2.95;;
10586;SDS011;5341;47.606;7.576;2023-05-06T09:44:05;5.30;;;3.30;;
10586;SDS011;5341;47.606;7.576;2023-05-06T09:46:33;3.95;;;2.10;;
10586;SDS011;5341;47.606;7.576;2023-05-06T09:49:00;5.93;;;3.63;;
10586;SDS011;5341;47.606;7.576;2023-05-06T09:51:29;4.95;;;3.80;;
10586;SDS011;5341;47.606;7.576;2023-05-06T09:53:58;5.05;;;4.03;;
10586;SDS011;5341;47.606;7.576;2023-05-06T09:56:27;6.65;;;5.45;;
10586;SDS011;5341;47.606;7.576;2023-05-06T09:58:56;6.68;;;5.68;;
10586;SDS011;5341;47.606;7.576;2023-05-06T10:01:28;5.90;;;5.20;;
10586;SDS011;5341;47.606;7.576;2023-05-06T10:03:56;6.35;;;4.57;;
10586;SDS011;5341;47.606;7.576;2023-05-06T10:06:26;5.35;;;4.35;;
10586;SDS011;5341;47.606;7.576;2023-05-06T10:08:54;5.13;;;4.63;;
10586;SDS011;5341;47.606;7.576;2023-05-06T10:11:25;6.13;;;5.25;;
10586;SDS011;5341;47.606;7.576;2023-05-06T10:13:56;5.28;;;4.70;;
10586;SDS011;5341;47.606;7.576;2023-05-06T10:16:24;6.93;;;5.25;;
10586;SDS011;5341;47.606;7.576;2023-05-06T10:18:53;6.10;;;5.00;;
10586;SDS011;5341;47.606;7.576;2023-05-06T10:21:24;5.75;;;4.35;;
10586;SDS011;5341;47.606;7.576;2023-05-06T10:23:59;5.07;;;4.57;;
10586;SDS011;5341;47.606;7.576;2023-05-06T10:26:41;6.07;;;4.80;;
10586;SDS011;5341;47.606;7.576;2023-05-06T10:29:11;6.32;;;4.30;;
10586;SDS011;5341;47.606;7.576;2023-05-06T10:31:42;5.72;;;4.65;;
10586;SDS011;5341;47.606;7.576;2023-05-06T10:34:13;6.35;;;4.70;;
10586;SDS011;5341;47.606;7.576;2023-05-06T10:36:45;6.72;;;4.68;;
10586;SDS011;5341;47.606;7.576;2023-05-06T10:39:16;7.28;;;4.57;;
10586;SDS011;5341;47.606;7.576;2023-05-06T10:41:46;4.80;;;3.80;;
10586;SDS011;5341;47.606;7.576;2023-05-06T10:44:13;5.47;;;4.00;;
10586;SDS011;5341;47.606;7.576;2023-05-06T10:46:56;5.95;;;4.20;;
10586;SDS011;5341;47.606;7.576;2023-05-06T10:49:25;5.90;;;4.07;;
10586;SDS011;5341;47.606;7.576;2023-05-06T10:52:11;4.15;;;3.75;;
10586;SDS011;5341;47.606;7.576;2023-05-06T10:54:48;6.97;;;4.30;;
10586;SDS011;5341;47.606;7.576;2023-05-06T10:57:18;5.70;;;4.30;;
10586;SDS011;5341;47.606;7.576;2023-05-06T10:59:50;8.30;;;3.85;;
10586;SDS011;5341;47.606;7.576;2023-05-06T11:02:20;6.32;;;3.90;;
10586;SDS011;5341;47.606;7.576;2023-05-06T11:04:49;5.90;;;3.40;;
10586;SDS011;5341;47.606;7.576;2023-05-06T11:07:20;7.00;;;2.92;;
10586;SDS011;5341;47.606;7.576;2023-05-06T11:09:52;5.80;;;3.80;;
10586;SDS011;5341;47.606;7.576;2023-05-06T11:12:28;5.18;;;3.53;;
10586;SDS011;5341;47.606;7.576;2023-05-06T11:15:23;7.63;;;3.30;;
10586;SDS011;5341;47.606;7.576;2023-05-06T11:17:52;4.38;;;3.70;;
10586;SDS011;5341;47.606;7.576;2023-05-06T11:20:20;4.38;;;3.50;;
10586;SDS011;5341;47.606;7.576;2023-05-06T11:22:49;3.97;;;2.50;;
10586;SDS011;5341;47.606;7.576;2023-05-06T11:25:37;3.85;;;3.05;;
10586;SDS011;5341;47.606;7.576;2023-05-06T11:28:07;5.85;;;3.00;;
10586;SDS011;5341;47.606;7.576;2023-05-06T11:30:36;4.65;;;2.80;;
10586;SDS011;5341;47.606;7.576;2023-05-06T11:33:06;3.95;;;2.88;;
10586;SDS011;5341;47.606;7.576;2023-05-06T11:35:34;4.07;;;3.20;;
10586;SDS011;5341;47.606;7.576;2023-05-06T11:38:02;3.85;;;3.40;;
10586;SDS011;5341;47.606;7.576;2023-05-06T11:40:30;4.63;;;3.17;;
10586;SDS011;5341;47.606;7.576;2023-05-06T11:43:09;3.90;;;2.95;;
10586;SDS011;5341;47.606;7.576;2023-05-06T11:45:42;3.13;;;2.50;;
10586;SDS011;5341;47.606;7.576;2023-05-06T11:48:11;4.40;;;2.38;;
10586;SDS011;5341;47.606;7.576;2023-05-06T11:50:43;3.17;;;2.33;;
10586;SDS011;5341;47.606;7.576;2023-05-06T11:53:21;3.88;;;2.60;;
10586;SDS011;5341;47.606;7.576;2023-05-06T11:55:50;3.38;;;2.58;;
10586;SDS011;5341;47.606;7.576;2023-05-06T11:58:23;3.50;;;2.40;;
10586;SDS011;5341;47.606;7.576;2023-05-06T12:00:52;4.32;;;2.50;;
10586;SDS011;5341;47.606;7.576;2023-05-06T12:03:20;3.00;;;2.40;;
10586;SDS011;5341;47.606;7.576;2023-05-06T12:05:49;4.72;;;2.42;;
10586;SDS011;5341;47.606;7.576;2023-05-06T12:08:18;5.40;;;2.60;;
10586;SDS011;5341;47.606;7.576;2023-05-06T12:10:48;3.33;;;2.22;;
10586;SDS011;5341;47.606;7.576;2023-05-06T12:13:18;2.55;;;2.13;;
10586;SDS011;5341;47.606;7.576;2023-05-06T12:15:47;3.15;;;2.20;;
10586;SDS011;5341;47.606;7.576;2023-05-06T12:18:15;2.38;;;1.88;;
10586;SDS011;5341;47.606;7.576;2023-05-06T12:20:43;3.88;;;2.40;;
10586;SDS011;5341;47.606;7.576;2023-05-06T12:23:11;3.38;;;2.00;;
10586;SDS011;5341;47.606;7.576;2023-05-06T12:25:39;3.17;;;2.20;;
10586;SDS011;5341;47.606;7.576;2023-05-06T12:28:12;4.43;;;1.92;;
10586;SDS011;5341;47.606;7.576;2023-05-06T12:30:41;8.95;;;2.58;;
10586;SDS011;5341;47.606;7.576;2023-05-06T12:33:10;9.40;;;2.60;;
10586;SDS011;5341;47.606;7.576;2023-05-06T12:35:37;5.50;;;2.22;;
10586;SDS011;5341;47.606;7.576;2023-05-06T12:38:06;3.53;;;2.00;;
10586;SDS011;5341;47.606;7.576;2023-05-06T12:40:35;3.40;;;1.88;;
10586;SDS011;5341;47.606;7.576;2023-05-06T12:43:02;8.52;;;2.55;;
10586;SDS011;5341;47.606;7.576;2023-05-06T12:45:30;4.78;;;2.05;;
10586;SDS011;5341;47.606;7.576;2023-05-06T12:47:58;2.50;;;1.80;;
10586;SDS011;5341;47.606;7.576;2023-05-06T12:50:31;5.13;;;2.10;;
10586;SDS011;5341;47.606;7.576;2023-05-06T12:53:00;5.20;;;2.05;;
10586;SDS011;5341;47.606;7.576;2023-05-06T12:55:29;4.28;;;2.00;;
10586;SDS011;5341;47.606;7.576;2023-05-06T12:57:56;3.78;;;1.80;;
10586;SDS011;5341;47.606;7.576;2023-05-06T13:00:24;8.85;;;1.85;;
10586;SDS011;5341;47.606;7.576;2023-05-06T13:02:51;7.22;;;2.03;;
10586;SDS011;5341;47.606;7.576;2023-05-06T13:05:18;3.25;;;1.80;;
10586;SDS011;5341;47.606;7.576;2023-05-06T13:07:47;2.20;;;1.75;;
10586;SDS011;5341;47.606;7.576;2023-05-06T13:10:15;1.80;;;1.33;;
10586;SDS011;5341;47.606;7.576;2023-05-06T13:12:43;3.65;;;1.70;;
10586;SDS011;5341;47.606;7.576;2023-05-06T13:15:10;3.00;;;1.73;;
10586;SDS011;5341;47.606;7.576;2023-05-06T13:17:38;3.50;;;1.75;;
10586;SDS011;5341;47.606;7.576;2023-05-06T13:20:06;2.25;;;1.67;;
10586;SDS011;5341;47.606;7.576;2023-05-06T13:22:34;2.15;;;1.65;;
10586;SDS011;5341;47.606;7.576;2023-05-06T13:25:04;2.47;;;1.48;;
10586;SDS011;5341;47.606;7.576;2023-05-06T13:27:31;2.13;;;1.55;;
10586;SDS011;5341;47.606;7.576;2023-05-06T13:29:59;1.70;;;1.50;;
10586;SDS011;5341;47.606;7.576;2023-05-06T13:32:26;2.78;;;1.70;;
10586;SDS011;5341;47.606;7.576;2023-05-06T13:34:54;3.13;;;1.85;;
10586;SDS011;5341;47.606;7.576;2023-05-06T13:37:21;3.00;;;1.75;;
10586;SDS011;5341;47.606;7.576;2023-05-06T13:39:49;3.67;;;1.70;;
10586;SDS011;5341;47.606;7.576;2023-05-06T13:42:18;4.82;;;1.77;;
10586;SDS011;5341;47.606;7.576;2023-05-06T13:44:45;8.30;;;2.50;;
10586;SDS011;5341;47.606;7.576;2023-05-06T13:47:13;4.22;;;1.70;;
10586;SDS011;5341;47.606;7.576;2023-05-06T13:49:40;4.15;;;2.00;;
10586;SDS011;5341;47.606;7.576;2023-05-06T13:52:07;2.95;;;1.80;;
10586;SDS011;5341;47.606;7.576;2023-05-06T13:54:34;3.53;;;1.58;;
10586;SDS011;5341;47.606;7.576;2023-05-06T13:57:02;2.78;;;1.70;;
10586;SDS011;5341;47.606;7.576;2023-05-06T13:59:31;2.45;;;1.70;;
10586;SDS011;5341;47.606;7.576;2023-05-06T14:01:58;2.38;;;1.67;;
10586;SDS011;5341;47.606;7.576;2023-05-06T14:04:26;3.58;;;1.80;;
10586;SDS011;5341;47.606;7.576;2023-05-06T14:06:53;4.35;;;2.08;;
10586;SDS011;5341;47.606;7.576;2023-05-06T14:09:20;3.92;;;2.00;;
10586;SDS011;5341;47.606;7.576;2023-05-06T14:11:48;3.20;;;2.83;;
10586;SDS011;5341;47.606;7.576;2023-05-06T14:14:15;3.20;;;2.00;;
10586;SDS011;5341;47.606;7.576;2023-05-06T14:16:44;4.45;;;3.00;;
10586;SDS011;5341;47.606;7.576;2023-05-06T14:19:16;4.50;;;2.33;;
10586;SDS011;5341;47.606;7.576;2023-05-06T14:21:43;6.25;;;2.22;;
10586;SDS011;5341;47.606;7.576;2023-05-06T14:24:11;3.75;;;2.00;;
10586;SDS011;5341;47.606;7.576;2023-05-06T14:26:39;2.83;;;1.80;;
10586;SDS011;5341;47.606;7.576;2023-05-06T14:29:07;2.60;;;1.73;;
10586;SDS011;5341;47.606;7.576;2023-05-06T14:31:34;3.45;;;1.90;;
10586;SDS011;5341;47.606;7.576;2023-05-06T14:34:03;2.85;;;1.70;;
10586;SDS011;5341;47.606;7.576;2023-05-06T14:36:30;2.92;;;1.75;;
10586;SDS011;5341;47.606;7.576;2023-05-06T14:38:58;2.80;;;1.80;;
10586;SDS011;5341;47.606;7.576;2023-05-06T14:41:25;2.80;;;1.70;;
10586;SDS011;5341;47.606;7.576;2023-05-06T14:43:53;2.85;;;1.92;;
10586;SDS011;5341;47.606;7.576;2023-05-06T14:46:20;2.72;;;1.77;;
10586;SDS011;5341;47.606;7.576;2023-05-06T14:48:47;2.97;;;1.60;;
10586;SDS011;5341;47.606;7.576;2023-05-06T14:51:19;3.25;;;1.83;;
10586;SDS011;5341;47.606;7.576;2023-05-06T14:53:46;2.40;;;1.77;;
10586;SDS011;5341;47.606;7.576;2023-05-06T14:56:14;2.60;;;1.85;;
10586;SDS011;5341;47.606;7.576;2023-05-06T14:58:41;2.83;;;2.00;;
10586;SDS011;5341;47.606;7.576;2023-05-06T15:01:08;3.35;;;1.70;;
10586;SDS011;5341;47.606;7.576;2023-05-06T15:03:36;1.90;;;1.60;;
10586;SDS011;5341;47.606;7.576;2023-05-06T15:06:03;2.35;;;1.67;;
10586;SDS011;5341;47.606;7.576;2023-05-06T15:08:32;2.22;;;1.45;;
10586;SDS011;5341;47.606;7.576;2023-05-06T15:10:59;3.15;;;1.88;;